sensor_id;sensor_type;location;lat;lon;timestamp;temperature;humidity
68274;SHT30;55104;47.356;19.448;2023-12-07T00:01:02;0.60;99.99
68274;SHT30;55104;47.356;19.448;2023-12-07T00:04:04;0.60;99.99
68274;SHT30;55104;47.356;19.448;2023-12-07T00:07:06;0.56;99.99
68274;SHT30;55104;47.356;19.448;2023-12-07T00:10:09;0.60;99.99
68274;SHT30;55104;47.356;19.448;2023-12-07T00:13:11;0.60;99.99
68274;SHT30;55104;47.356;19.448;2023-12-07T00:16:13;0.66;99.99
68274;SHT30;55104;47.356;19.448;2023-12-07T00:19:16;0.61;99.99
68274;SHT30;55104;47.356;19.448;2023-12-07T00:22:18;0.63;99.99
68274;SHT30;55104;47.356;19.448;2023-12-07T00:25:21;0.60;99.99
68274;SHT30;55104;47.356;19.448;2023-12-07T00:28:23;0.57;99.99
68274;SHT30;55104;47.356;19.448;2023-12-07T00:31:26;0.54;99.99
68274;SHT30;55104;47.356;19.448;2023-12-07T00:34:28;0.57;99.99
68274;SHT30;55104;47.356;19.448;2023-12-07T00:37:30;0.56;99.99
68274;SHT30;55104;47.356;19.448;2023-12-07T00:40:33;0.61;99.99
68274;SHT30;55104;47.356;19.448;2023-12-07T00:43:38;0.60;99.99
68274;SHT30;55104;47.356;19.448;2023-12-07T00:46:40;0.56;99.99
68274;SHT30;55104;47.356;19.448;2023-12-07T00:49:42;0.57;99.99
68274;SHT30;55104;47.356;19.448;2023-12-07T00:52:45;0.56;99.99
68274;SHT30;55104;47.356;19.448;2023-12-07T00:55:47;0.57;99.99
68274;SHT30;55104;47.356;19.448;2023-12-07T00:58:50;0.60;99.99
68274;SHT30;55104;47.356;19.448;2023-12-07T01:01:52;0.56;99.99
68274;SHT30;55104;47.356;19.448;2023-12-07T01:04:54;0.60;99.99
68274;SHT30;55104;47.356;19.448;2023-12-07T01:07:56;0.61;99.99
68274;SHT30;55104;47.356;19.448;2023-12-07T01:10:59;0.59;99.99
68274;SHT30;55104;47.356;19.448;2023-12-07T01:14:01;0.59;99.99
68274;SHT30;55104;47.356;19.448;2023-12-07T01:17:04;0.61;99.99
68274;SHT30;55104;47.356;19.448;2023-12-07T01:20:06;0.61;99.99
68274;SHT30;55104;47.356;19.448;2023-12-07T01:23:14;0.60;99.99
68274;SHT30;55104;47.356;19.448;2023-12-07T01:26:17;0.60;99.99
68274;SHT30;55104;47.356;19.448;2023-12-07T01:29:20;0.57;99.99
68274;SHT30;55104;47.356;19.448;2023-12-07T01:32:22;0.56;99.99
68274;SHT30;55104;47.356;19.448;2023-12-07T01:35:24;0.56;99.99
68274;SHT30;55104;47.356;19.448;2023-12-07T01:38:27;0.60;99.99
68274;SHT30;55104;47.356;19.448;2023-12-07T01:41:29;0.60;99.99
68274;SHT30;55104;47.356;19.448;2023-12-07T01:44:31;0.60;99.99
68274;SHT30;55104;47.356;19.448;2023-12-07T01:47:35;0.60;99.99
68274;SHT30;55104;47.356;19.448;2023-12-07T01:50:37;0.60;99.99
68274;SHT30;55104;47.356;19.448;2023-12-07T01:53:40;0.61;99.99
68274;SHT30;55104;47.356;19.448;2023-12-07T01:56:42;0.61;99.99
68274;SHT30;55104;47.356;19.448;2023-12-07T01:59:45;0.60;99.99
68274;SHT30;55104;47.356;19.448;2023-12-07T02:02:47;0.61;99.99
68274;SHT30;55104;47.356;19.448;2023-12-07T02:05:51;0.61;99.99
68274;SHT30;55104;47.356;19.448;2023-12-07T02:08:53;0.61;99.99
68274;SHT30;55104;47.356;19.448;2023-12-07T02:11:55;0.61;99.99
68274;SHT30;55104;47.356;19.448;2023-12-07T02:15:00;0.61;99.99
68274;SHT30;55104;47.356;19.448;2023-12-07T02:21:34;0.57;99.99
68274;SHT30;55104;47.356;19.448;2023-12-07T02:24:37;0.54;99.99
68274;SHT30;55104;47.356;19.448;2023-12-07T02:27:43;0.57;99.99
68274;SHT30;55104;47.356;19.448;2023-12-07T02:30:50;0.59;99.99
68274;SHT30;55104;47.356;19.448;2023-12-07T02:33:52;0.52;99.99
68274;SHT30;55104;47.356;19.448;2023-12-07T02:36:56;0.52;99.99
68274;SHT30;55104;47.356;19.448;2023-12-07T02:40:00;0.49;99.99
68274;SHT30;55104;47.356;19.448;2023-12-07T02:43:03;0.54;99.99
68274;SHT30;55104;47.356;19.448;2023-12-07T02:46:06;0.50;99.99
68274;SHT30;55104;47.356;19.448;2023-12-07T02:49:09;0.50;99.99
68274;SHT30;55104;47.356;19.448;2023-12-07T02:52:12;0.53;99.99
68274;SHT30;55104;47.356;19.448;2023-12-07T02:55:14;0.56;99.99
68274;SHT30;55104;47.356;19.448;2023-12-07T02:58:16;0.50;99.99
68274;SHT30;55104;47.356;19.448;2023-12-07T03:01:19;0.48;99.99
68274;SHT30;55104;47.356;19.448;2023-12-07T03:04:22;0.48;99.99
68274;SHT30;55104;47.356;19.448;2023-12-07T03:07:24;0.50;99.99
68274;SHT30;55104;47.356;19.448;2023-12-07T03:10:27;0.46;99.99
68274;SHT30;55104;47.356;19.448;2023-12-07T03:13:29;0.42;99.99
68274;SHT30;55104;47.356;19.448;2023-12-07T03:16:31;0.45;99.99
68274;SHT30;55104;47.356;19.448;2023-12-07T03:19:37;0.43;99.99
68274;SHT30;55104;47.356;19.448;2023-12-07T03:22:40;0.41;99.99
68274;SHT30;55104;47.356;19.448;2023-12-07T03:25:42;0.43;99.99
68274;SHT30;55104;47.356;19.448;2023-12-07T03:28:44;0.43;99.99
68274;SHT30;55104;47.356;19.448;2023-12-07T03:31:47;0.42;99.99
68274;SHT30;55104;47.356;19.448;2023-12-07T03:34:49;0.46;99.99
68274;SHT30;55104;47.356;19.448;2023-12-07T03:37:51;0.48;99.99
68274;SHT30;55104;47.356;19.448;2023-12-07T03:40:54;0.49;99.99
68274;SHT30;55104;47.356;19.448;2023-12-07T03:43:56;0.49;99.99
68274;SHT30;55104;47.356;19.448;2023-12-07T03:46:58;0.46;99.99
68274;SHT30;55104;47.356;19.448;2023-12-07T03:50:00;0.43;99.99
68274;SHT30;55104;47.356;19.448;2023-12-07T03:53:03;0.48;99.99
68274;SHT30;55104;47.356;19.448;2023-12-07T03:56:05;0.42;99.99
68274;SHT30;55104;47.356;19.448;2023-12-07T03:59:08;0.46;99.99
68274;SHT30;55104;47.356;19.448;2023-12-07T04:02:10;0.43;99.99
68274;SHT30;55104;47.356;19.448;2023-12-07T04:05:13;0.38;99.99
68274;SHT30;55104;47.356;19.448;2023-12-07T04:08:15;0.41;99.99
68274;SHT30;55104;47.356;19.448;2023-12-07T04:11:18;0.38;99.99
68274;SHT30;55104;47.356;19.448;2023-12-07T04:14:20;0.42;99.99
68274;SHT30;55104;47.356;19.448;2023-12-07T04:17:22;0.41;99.99
68274;SHT30;55104;47.356;19.448;2023-12-07T04:20:24;0.43;99.99
68274;SHT30;55104;47.356;19.448;2023-12-07T04:23:29;0.46;99.99
68274;SHT30;55104;47.356;19.448;2023-12-07T04:26:31;0.46;99.99
68274;SHT30;55104;47.356;19.448;2023-12-07T04:29:33;0.45;99.99
68274;SHT30;55104;47.356;19.448;2023-12-07T04:32:35;0.38;99.99
68274;SHT30;55104;47.356;19.448;2023-12-07T04:35:37;0.38;99.99
68274;SHT30;55104;47.356;19.448;2023-12-07T04:38:39;0.39;99.99
68274;SHT30;55104;47.356;19.448;2023-12-07T04:41:42;0.46;99.99
68274;SHT30;55104;47.356;19.448;2023-12-07T04:44:44;0.43;99.99
68274;SHT30;55104;47.356;19.448;2023-12-07T04:47:46;0.43;99.99
68274;SHT30;55104;47.356;19.448;2023-12-07T04:50:48;0.43;99.99
68274;SHT30;55104;47.356;19.448;2023-12-07T04:53:51;0.43;99.99
68274;SHT30;55104;47.356;19.448;2023-12-07T04:56:56;0.48;99.99
68274;SHT30;55104;47.356;19.448;2023-12-07T04:59:59;0.45;99.99
68274;SHT30;55104;47.356;19.448;2023-12-07T05:03:01;0.43;99.99
68274;SHT30;55104;47.356;19.448;2023-12-07T05:06:05;0.52;99.99
68274;SHT30;55104;47.356;19.448;2023-12-07T05:09:07;0.46;99.99
68274;SHT30;55104;47.356;19.448;2023-12-07T05:12:13;0.43;99.99
68274;SHT30;55104;47.356;19.448;2023-12-07T05:15:15;0.46;99.99
68274;SHT30;55104;47.356;19.448;2023-12-07T05:18:17;0.42;99.99
68274;SHT30;55104;47.356;19.448;2023-12-07T05:21:19;0.46;99.99
68274;SHT30;55104;47.356;19.448;2023-12-07T05:24:22;0.42;99.99
68274;SHT30;55104;47.356;19.448;2023-12-07T05:27:24;0.41;99.99
68274;SHT30;55104;47.356;19.448;2023-12-07T05:30:26;0.45;99.99
68274;SHT30;55104;47.356;19.448;2023-12-07T05:33:30;0.45;99.99
68274;SHT30;55104;47.356;19.448;2023-12-07T05:36:32;0.48;99.99
68274;SHT30;55104;47.356;19.448;2023-12-07T05:39:35;0.46;99.99
68274;SHT30;55104;47.356;19.448;2023-12-07T05:42:38;0.45;99.99
68274;SHT30;55104;47.356;19.448;2023-12-07T05:45:40;0.49;99.99
68274;SHT30;55104;47.356;19.448;2023-12-07T05:48:43;0.48;99.99
68274;SHT30;55104;47.356;19.448;2023-12-07T05:51:45;0.45;99.99
68274;SHT30;55104;47.356;19.448;2023-12-07T05:54:47;0.45;99.99
68274;SHT30;55104;47.356;19.448;2023-12-07T05:57:50;0.48;99.99
68274;SHT30;55104;47.356;19.448;2023-12-07T06:00:52;0.49;99.99
68274;SHT30;55104;47.356;19.448;2023-12-07T06:03:54;0.46;99.99
68274;SHT30;55104;47.356;19.448;2023-12-07T06:06:57;0.41;99.99
68274;SHT30;55104;47.356;19.448;2023-12-07T06:09:59;0.39;99.99
68274;SHT30;55104;47.356;19.448;2023-12-07T06:13:02;0.45;99.99
68274;SHT30;55104;47.356;19.448;2023-12-07T06:16:05;0.50;99.99
68274;SHT30;55104;47.356;19.448;2023-12-07T06:19:08;0.48;99.99
68274;SHT30;55104;47.356;19.448;2023-12-07T06:22:10;0.42;99.99
68274;SHT30;55104;47.356;19.448;2023-12-07T06:25:12;0.41;99.99
68274;SHT30;55104;47.356;19.448;2023-12-07T06:28:15;0.39;99.99
68274;SHT30;55104;47.356;19.448;2023-12-07T06:31:18;0.42;99.99
68274;SHT30;55104;47.356;19.448;2023-12-07T06:34:23;0.46;99.99
68274;SHT30;55104;47.356;19.448;2023-12-07T06:37:26;0.43;99.99
68274;SHT30;55104;47.356;19.448;2023-12-07T06:40:29;0.43;99.99
68274;SHT30;55104;47.356;19.448;2023-12-07T06:43:31;0.39;99.99
68274;SHT30;55104;47.356;19.448;2023-12-07T06:46:33;0.45;99.99
68274;SHT30;55104;47.356;19.448;2023-12-07T06:49:35;0.48;99.99
68274;SHT30;55104;47.356;19.448;2023-12-07T06:52:51;0.45;99.99
68274;SHT30;55104;47.356;19.448;2023-12-07T06:55:53;0.48;99.99
68274;SHT30;55104;47.356;19.448;2023-12-07T06:58:56;0.48;99.99
68274;SHT30;55104;47.356;19.448;2023-12-07T07:01:58;0.56;99.99
68274;SHT30;55104;47.356;19.448;2023-12-07T07:05:00;0.52;99.99
68274;SHT30;55104;47.356;19.448;2023-12-07T07:08:03;0.59;99.99
68274;SHT30;55104;47.356;19.448;2023-12-07T07:11:12;0.74;99.99
68274;SHT30;55104;47.356;19.448;2023-12-07T07:14:16;0.66;99.99
68274;SHT30;55104;47.356;19.448;2023-12-07T07:17:18;0.61;99.99
68274;SHT30;55104;47.356;19.448;2023-12-07T07:20:20;0.64;99.99
68274;SHT30;55104;47.356;19.448;2023-12-07T07:23:23;0.77;99.99
68274;SHT30;55104;47.356;19.448;2023-12-07T07:26:25;0.76;99.99
68274;SHT30;55104;47.356;19.448;2023-12-07T07:29:27;0.79;99.99
68274;SHT30;55104;47.356;19.448;2023-12-07T07:32:31;0.81;99.99
68274;SHT30;55104;47.356;19.448;2023-12-07T07:35:33;0.80;99.89
68274;SHT30;55104;47.356;19.448;2023-12-07T07:38:35;0.83;99.74
68274;SHT30;55104;47.356;19.448;2023-12-07T07:41:38;0.76;99.76
68274;SHT30;55104;47.356;19.448;2023-12-07T07:44:40;0.76;99.90
68274;SHT30;55104;47.356;19.448;2023-12-07T07:47:43;0.83;99.87
68274;SHT30;55104;47.356;19.448;2023-12-07T07:50:45;0.85;99.73
68274;SHT30;55104;47.356;19.448;2023-12-07T07:53:48;1.01;99.09
68274;SHT30;55104;47.356;19.448;2023-12-07T07:56:51;0.94;99.00
68274;SHT30;55104;47.356;19.448;2023-12-07T07:59:53;1.04;98.68
68274;SHT30;55104;47.356;19.448;2023-12-07T08:02:55;1.05;98.56
68274;SHT30;55104;47.356;19.448;2023-12-07T08:05:58;0.98;98.52
68274;SHT30;55104;47.356;19.448;2023-12-07T08:09:01;0.98;98.82
68274;SHT30;55104;47.356;19.448;2023-12-07T08:12:04;0.98;99.00
68274;SHT30;55104;47.356;19.448;2023-12-07T08:15:07;0.95;99.09
68274;SHT30;55104;47.356;19.448;2023-12-07T08:18:13;0.99;99.18
68274;SHT30;55104;47.356;19.448;2023-12-07T08:21:23;0.92;99.01
68274;SHT30;55104;47.356;19.448;2023-12-07T08:24:32;1.05;99.08
68274;SHT30;55104;47.356;19.448;2023-12-07T08:27:34;1.07;98.97
68274;SHT30;55104;47.356;19.448;2023-12-07T08:30:36;1.11;98.82
68274;SHT30;55104;47.356;19.448;2023-12-07T08:33:38;1.18;98.78
68274;SHT30;55104;47.356;19.448;2023-12-07T08:36:41;1.21;98.65
68274;SHT30;55104;47.356;19.448;2023-12-07T08:39:44;1.29;98.53
68274;SHT30;55104;47.356;19.448;2023-12-07T08:42:47;1.33;98.08
68274;SHT30;55104;47.356;19.448;2023-12-07T08:45:53;1.29;97.99
68274;SHT30;55104;47.356;19.448;2023-12-07T08:49:02;1.35;97.82
68274;SHT30;55104;47.356;19.448;2023-12-07T08:52:05;1.39;97.71
68274;SHT30;55104;47.356;19.448;2023-12-07T08:55:28;1.46;97.34
68274;SHT30;55104;47.356;19.448;2023-12-07T08:58:31;1.59;97.07
68274;SHT30;55104;47.356;19.448;2023-12-07T09:01:34;1.49;97.01
68274;SHT30;55104;47.356;19.448;2023-12-07T09:04:36;1.59;96.69
68274;SHT30;55104;47.356;19.448;2023-12-07T09:07:39;1.59;96.62
68274;SHT30;55104;47.356;19.448;2023-12-07T09:10:41;1.66;96.49
68274;SHT30;55104;47.356;19.448;2023-12-07T09:13:44;1.82;95.65
68274;SHT30;55104;47.356;19.448;2023-12-07T09:16:46;1.77;95.52
68274;SHT30;55104;47.356;19.448;2023-12-07T09:19:48;1.77;94.86
68274;SHT30;55104;47.356;19.448;2023-12-07T09:22:50;1.97;94.64
68274;SHT30;55104;47.356;19.448;2023-12-07T09:25:53;2.12;94.28
68274;SHT30;55104;47.356;19.448;2023-12-07T09:28:55;2.18;94.11
68274;SHT30;55104;47.356;19.448;2023-12-07T09:31:57;2.09;93.83
68274;SHT30;55104;47.356;19.448;2023-12-07T09:34:59;2.04;94.21
68274;SHT30;55104;47.356;19.448;2023-12-07T09:38:02;1.82;94.69
68274;SHT30;55104;47.356;19.448;2023-12-07T09:41:04;1.87;94.78
68274;SHT30;55104;47.356;19.448;2023-12-07T09:44:06;1.84;95.05
68274;SHT30;55104;47.356;19.448;2023-12-07T09:47:09;1.80;95.26
68274;SHT30;55104;47.356;19.448;2023-12-07T09:50:15;1.78;95.43
68274;SHT30;55104;47.356;19.448;2023-12-07T09:53:19;1.81;95.03
68274;SHT30;55104;47.356;19.448;2023-12-07T09:56:22;1.82;94.62
68274;SHT30;55104;47.356;19.448;2023-12-07T09:59:24;1.88;94.62
68274;SHT30;55104;47.356;19.448;2023-12-07T10:02:26;1.71;95.03
68274;SHT30;55104;47.356;19.448;2023-12-07T10:05:29;1.95;94.59
68274;SHT30;55104;47.356;19.448;2023-12-07T10:08:33;1.78;94.46
68274;SHT30;55104;47.356;19.448;2023-12-07T10:11:38;1.68;95.03
68274;SHT30;55104;47.356;19.448;2023-12-07T10:14:40;1.66;95.18
68274;SHT30;55104;47.356;19.448;2023-12-07T10:17:48;1.73;95.52
68274;SHT30;55104;47.356;19.448;2023-12-07T10:20:50;1.54;95.54
68274;SHT30;55104;47.356;19.448;2023-12-07T10:23:53;1.52;96.22
68274;SHT30;55104;47.356;19.448;2023-12-07T10:26:55;1.50;96.28
68274;SHT30;55104;47.356;19.448;2023-12-07T10:30:09;1.56;96.43
68274;SHT30;55104;47.356;19.448;2023-12-07T10:33:12;1.43;96.56
68274;SHT30;55104;47.356;19.448;2023-12-07T10:36:15;1.42;96.81
68274;SHT30;55104;47.356;19.448;2023-12-07T10:39:18;1.49;96.94
68274;SHT30;55104;47.356;19.448;2023-12-07T10:42:31;1.40;96.86
68274;SHT30;55104;47.356;19.448;2023-12-07T10:45:35;1.50;96.73
68274;SHT30;55104;47.356;19.448;2023-12-07T10:48:39;1.50;96.74
68274;SHT30;55104;47.356;19.448;2023-12-07T10:52:00;1.45;96.55
68274;SHT30;55104;47.356;19.448;2023-12-07T10:55:20;1.52;96.52
68274;SHT30;55104;47.356;19.448;2023-12-07T10:58:26;1.49;95.90
68274;SHT30;55104;47.356;19.448;2023-12-07T11:01:30;1.43;95.95
68274;SHT30;55104;47.356;19.448;2023-12-07T11:04:35;1.38;96.19
68274;SHT30;55104;47.356;19.448;2023-12-07T11:08:08;1.24;96.63
68274;SHT30;55104;47.356;19.448;2023-12-07T11:14:27;1.43;96.55
68274;SHT30;55104;47.356;19.448;2023-12-07T11:17:29;1.38;96.24
68274;SHT30;55104;47.356;19.448;2023-12-07T11:20:40;1.40;96.35
68274;SHT30;55104;47.356;19.448;2023-12-07T11:23:43;1.40;96.29
68274;SHT30;55104;47.356;19.448;2023-12-07T11:26:46;1.38;96.44
68274;SHT30;55104;47.356;19.448;2023-12-07T11:29:48;1.45;96.55
68274;SHT30;55104;47.356;19.448;2023-12-07T11:32:51;1.39;96.58
68274;SHT30;55104;47.356;19.448;2023-12-07T11:42:20;1.31;96.93
68274;SHT30;55104;47.356;19.448;2023-12-07T11:45:46;1.26;96.88
68274;SHT30;55104;47.356;19.448;2023-12-07T11:48:50;1.26;96.58
68274;SHT30;55104;47.356;19.448;2023-12-07T11:51:52;1.26;97.04
68274;SHT30;55104;47.356;19.448;2023-12-07T11:54:55;1.32;96.84
68274;SHT30;55104;47.356;19.448;2023-12-07T11:57:57;1.36;96.78
68274;SHT30;55104;47.356;19.448;2023-12-07T12:01:01;1.35;96.74
68274;SHT30;55104;47.356;19.448;2023-12-07T12:04:05;1.39;96.95
68274;SHT30;55104;47.356;19.448;2023-12-07T12:07:08;1.40;96.85
68274;SHT30;55104;47.356;19.448;2023-12-07T12:10:10;1.45;96.57
68274;SHT30;55104;47.356;19.448;2023-12-07T12:13:13;1.46;96.20
68274;SHT30;55104;47.356;19.448;2023-12-07T12:16:15;1.43;96.35
68274;SHT30;55104;47.356;19.448;2023-12-07T12:19:17;1.53;95.95
68274;SHT30;55104;47.356;19.448;2023-12-07T12:22:36;1.43;96.07
68274;SHT30;55104;47.356;19.448;2023-12-07T12:25:38;1.49;96.17
68274;SHT30;55104;47.356;19.448;2023-12-07T12:28:43;1.32;96.65
68274;SHT30;55104;47.356;19.448;2023-12-07T12:31:46;1.39;97.08
68274;SHT30;55104;47.356;19.448;2023-12-07T12:34:52;1.40;97.09
68274;SHT30;55104;47.356;19.448;2023-12-07T12:37:55;1.32;96.77
68274;SHT30;55104;47.356;19.448;2023-12-07T12:40:57;1.36;96.74
68274;SHT30;55104;47.356;19.448;2023-12-07T12:43:59;1.32;96.61
68274;SHT30;55104;47.356;19.448;2023-12-07T12:47:01;1.46;96.60
68274;SHT30;55104;47.356;19.448;2023-12-07T12:50:04;1.42;96.33
68274;SHT30;55104;47.356;19.448;2023-12-07T12:53:09;1.49;96.16
68274;SHT30;55104;47.356;19.448;2023-12-07T12:56:13;1.45;96.25
68274;SHT30;55104;47.356;19.448;2023-12-07T12:59:15;1.39;96.67
68274;SHT30;55104;47.356;19.448;2023-12-07T13:02:17;1.46;96.41
68274;SHT30;55104;47.356;19.448;2023-12-07T13:05:20;1.56;96.00
68274;SHT30;55104;47.356;19.448;2023-12-07T13:08:23;1.57;95.70
68274;SHT30;55104;47.356;19.448;2023-12-07T13:11:25;1.52;95.87
68274;SHT30;55104;47.356;19.448;2023-12-07T13:14:28;1.53;96.18
68274;SHT30;55104;47.356;19.448;2023-12-07T13:17:33;1.59;96.16
68274;SHT30;55104;47.356;19.448;2023-12-07T13:20:35;1.63;96.37
68274;SHT30;55104;47.356;19.448;2023-12-07T13:23:40;1.59;96.18
68274;SHT30;55104;47.356;19.448;2023-12-07T13:26:42;1.60;96.17
68274;SHT30;55104;47.356;19.448;2023-12-07T13:29:45;1.66;95.89
68274;SHT30;55104;47.356;19.448;2023-12-07T13:32:47;1.38;96.37
68274;SHT30;55104;47.356;19.448;2023-12-07T13:35:50;1.42;96.60
68274;SHT30;55104;47.356;19.448;2023-12-07T13:38:57;1.49;96.49
68274;SHT30;55104;47.356;19.448;2023-12-07T13:41:59;1.39;96.14
68274;SHT30;55104;47.356;19.448;2023-12-07T13:45:08;1.40;96.53
68274;SHT30;55104;47.356;19.448;2023-12-07T13:48:10;1.33;96.41
68274;SHT30;55104;47.356;19.448;2023-12-07T13:51:15;1.31;96.67
68274;SHT30;55104;47.356;19.448;2023-12-07T13:54:17;1.25;96.98
68274;SHT30;55104;47.356;19.448;2023-12-07T13:57:40;1.16;97.32
68274;SHT30;55104;47.356;19.448;2023-12-07T14:00:42;1.16;97.30
68274;SHT30;55104;47.356;19.448;2023-12-07T14:03:47;1.11;97.75
68274;SHT30;55104;47.356;19.448;2023-12-07T14:06:50;1.14;97.62
68274;SHT30;55104;47.356;19.448;2023-12-07T14:09:53;1.14;97.75
68274;SHT30;55104;47.356;19.448;2023-12-07T14:13:00;1.11;97.85
68274;SHT30;55104;47.356;19.448;2023-12-07T14:16:04;1.04;98.01
68274;SHT30;55104;47.356;19.448;2023-12-07T14:19:18;1.05;98.11
68274;SHT30;55104;47.356;19.448;2023-12-07T14:22:21;1.02;98.32
68274;SHT30;55104;47.356;19.448;2023-12-07T14:25:24;0.95;98.44
68274;SHT30;55104;47.356;19.448;2023-12-07T14:28:26;0.88;98.79
68274;SHT30;55104;47.356;19.448;2023-12-07T14:31:32;0.81;99.18
68274;SHT30;55104;47.356;19.448;2023-12-07T14:34:35;0.83;99.21
68274;SHT30;55104;47.356;19.448;2023-12-07T14:37:38;0.76;99.20
68274;SHT30;55104;47.356;19.448;2023-12-07T14:40:43;0.77;99.16
68274;SHT30;55104;47.356;19.448;2023-12-07T14:43:46;0.81;99.13
68274;SHT30;55104;47.356;19.448;2023-12-07T14:46:48;0.79;99.17
68274;SHT30;55104;47.356;19.448;2023-12-07T14:49:51;0.73;99.33
68274;SHT30;55104;47.356;19.448;2023-12-07T14:52:53;0.74;99.41
68274;SHT30;55104;47.356;19.448;2023-12-07T14:55:55;0.76;99.47
68274;SHT30;55104;47.356;19.448;2023-12-07T14:59:00;0.79;99.08
68274;SHT30;55104;47.356;19.448;2023-12-07T15:02:02;0.73;99.23
68274;SHT30;55104;47.356;19.448;2023-12-07T15:05:05;0.74;99.15
68274;SHT30;55104;47.356;19.448;2023-12-07T15:08:08;0.71;99.45
68274;SHT30;55104;47.356;19.448;2023-12-07T15:11:10;0.63;99.72
68274;SHT30;55104;47.356;19.448;2023-12-07T15:14:13;0.61;99.88
68274;SHT30;55104;47.356;19.448;2023-12-07T15:17:34;0.63;99.90
68274;SHT30;55104;47.356;19.448;2023-12-07T15:20:36;0.66;99.65
68274;SHT30;55104;47.356;19.448;2023-12-07T15:23:39;0.63;99.62
68274;SHT30;55104;47.356;19.448;2023-12-07T15:26:42;0.60;99.82
68274;SHT30;55104;47.356;19.448;2023-12-07T15:29:50;0.67;99.74
68274;SHT30;55104;47.356;19.448;2023-12-07T15:32:52;0.64;99.91
68274;SHT30;55104;47.356;19.448;2023-12-07T15:35:54;0.61;99.99
68274;SHT30;55104;47.356;19.448;2023-12-07T15:38:59;0.60;99.99
68274;SHT30;55104;47.356;19.448;2023-12-07T15:42:01;0.60;99.99
68274;SHT30;55104;47.356;19.448;2023-12-07T15:45:08;0.63;99.89
68274;SHT30;55104;47.356;19.448;2023-12-07T15:48:10;0.71;99.92
68274;SHT30;55104;47.356;19.448;2023-12-07T15:51:14;0.70;99.90
68274;SHT30;55104;47.356;19.448;2023-12-07T15:54:16;0.64;99.98
68274;SHT30;55104;47.356;19.448;2023-12-07T15:57:36;0.67;99.99
68274;SHT30;55104;47.356;19.448;2023-12-07T16:00:38;0.73;99.88
68274;SHT30;55104;47.356;19.448;2023-12-07T16:03:40;0.70;99.99
68274;SHT30;55104;47.356;19.448;2023-12-07T16:06:44;0.67;99.99
68274;SHT30;55104;47.356;19.448;2023-12-07T16:09:46;0.77;99.99
68274;SHT30;55104;47.356;19.448;2023-12-07T16:12:49;0.76;99.95
68274;SHT30;55104;47.356;19.448;2023-12-07T16:15:51;0.70;99.99
68274;SHT30;55104;47.356;19.448;2023-12-07T16:18:54;0.76;99.99
68274;SHT30;55104;47.356;19.448;2023-12-07T16:21:56;0.70;99.99
68274;SHT30;55104;47.356;19.448;2023-12-07T16:24:59;0.70;99.99
68274;SHT30;55104;47.356;19.448;2023-12-07T16:28:04;0.73;99.99
68274;SHT30;55104;47.356;19.448;2023-12-07T16:31:06;0.74;99.99
68274;SHT30;55104;47.356;19.448;2023-12-07T16:34:09;0.81;99.99
68274;SHT30;55104;47.356;19.448;2023-12-07T16:37:11;0.81;99.85
68274;SHT30;55104;47.356;19.448;2023-12-07T16:40:14;0.76;99.95
68274;SHT30;55104;47.356;19.448;2023-12-07T16:43:16;0.74;99.99
68274;SHT30;55104;47.356;19.448;2023-12-07T16:46:18;0.76;99.89
68274;SHT30;55104;47.356;19.448;2023-12-07T16:49:20;0.73;99.99
68274;SHT30;55104;47.356;19.448;2023-12-07T16:52:24;0.76;99.99
68274;SHT30;55104;47.356;19.448;2023-12-07T16:55:26;0.76;99.97
68274;SHT30;55104;47.356;19.448;2023-12-07T16:58:30;0.77;99.99
68274;SHT30;55104;47.356;19.448;2023-12-07T17:01:32;0.83;99.89
68274;SHT30;55104;47.356;19.448;2023-12-07T17:04:35;0.81;99.84
68274;SHT30;55104;47.356;19.448;2023-12-07T17:07:37;0.77;99.99
68274;SHT30;55104;47.356;19.448;2023-12-07T17:10:39;0.79;99.99
68274;SHT30;55104;47.356;19.448;2023-12-07T17:13:41;0.76;99.99
68274;SHT30;55104;47.356;19.448;2023-12-07T17:16:44;0.85;99.92
68274;SHT30;55104;47.356;19.448;2023-12-07T17:19:46;0.83;99.89
68274;SHT30;55104;47.356;19.448;2023-12-07T17:22:52;0.79;99.99
68274;SHT30;55104;47.356;19.448;2023-12-07T17:25:55;0.76;99.99
68274;SHT30;55104;47.356;19.448;2023-12-07T17:28:57;0.77;99.99
68274;SHT30;55104;47.356;19.448;2023-12-07T17:31:59;0.87;99.93
68274;SHT30;55104;47.356;19.448;2023-12-07T17:35:02;0.87;99.85
68274;SHT30;55104;47.356;19.448;2023-12-07T17:38:05;0.90;99.55
68274;SHT30;55104;47.356;19.448;2023-12-07T17:41:07;0.91;99.52
68274;SHT30;55104;47.356;19.448;2023-12-07T17:44:09;0.87;99.60
68274;SHT30;55104;47.356;19.448;2023-12-07T17:47:11;0.91;99.46
68274;SHT30;55104;47.356;19.448;2023-12-07T17:50:14;0.88;99.52
68274;SHT30;55104;47.356;19.448;2023-12-07T17:53:16;0.87;99.77
68274;SHT30;55104;47.356;19.448;2023-12-07T17:56:19;0.98;99.59
68274;SHT30;55104;47.356;19.448;2023-12-07T17:59:23;1.02;99.34
68274;SHT30;55104;47.356;19.448;2023-12-07T18:02:25;0.92;99.22
68274;SHT30;55104;47.356;19.448;2023-12-07T18:05:27;0.91;99.36
68274;SHT30;55104;47.356;19.448;2023-12-07T18:08:30;0.90;99.74
68274;SHT30;55104;47.356;19.448;2023-12-07T18:11:32;0.91;99.78
68274;SHT30;55104;47.356;19.448;2023-12-07T18:14:34;0.85;99.86
68274;SHT30;55104;47.356;19.448;2023-12-07T18:17:36;0.91;99.92
68274;SHT30;55104;47.356;19.448;2023-12-07T18:20:38;0.91;99.85
68274;SHT30;55104;47.356;19.448;2023-12-07T18:23:41;0.88;99.54
68274;SHT30;55104;47.356;19.448;2023-12-07T18:26:47;0.92;99.47
68274;SHT30;55104;47.356;19.448;2023-12-07T18:29:49;0.87;99.53
68274;SHT30;55104;47.356;19.448;2023-12-07T18:32:52;0.90;99.44
68274;SHT30;55104;47.356;19.448;2023-12-07T18:35:57;0.90;99.36
68274;SHT30;55104;47.356;19.448;2023-12-07T18:39:00;0.88;99.39
68274;SHT30;55104;47.356;19.448;2023-12-07T18:42:02;0.80;99.77
68274;SHT30;55104;47.356;19.448;2023-12-07T18:45:05;0.81;99.70
68274;SHT30;55104;47.356;19.448;2023-12-07T18:48:08;0.81;99.69
68274;SHT30;55104;47.356;19.448;2023-12-07T18:51:11;0.87;99.71
68274;SHT30;55104;47.356;19.448;2023-12-07T18:54:13;0.80;99.73
68274;SHT30;55104;47.356;19.448;2023-12-07T18:57:16;0.81;99.70
68274;SHT30;55104;47.356;19.448;2023-12-07T19:00:18;0.83;99.85
68274;SHT30;55104;47.356;19.448;2023-12-07T19:03:22;0.83;99.77
68274;SHT30;55104;47.356;19.448;2023-12-07T19:06:24;0.84;99.67
68274;SHT30;55104;47.356;19.448;2023-12-07T19:09:27;0.84;99.75
68274;SHT30;55104;47.356;19.448;2023-12-07T19:12:29;0.81;99.83
68274;SHT30;55104;47.356;19.448;2023-12-07T19:15:33;0.94;99.67
68274;SHT30;55104;47.356;19.448;2023-12-07T19:18:35;0.95;99.41
68274;SHT30;55104;47.356;19.448;2023-12-07T19:21:37;0.90;99.30
68274;SHT30;55104;47.356;19.448;2023-12-07T19:24:41;0.85;99.69
68274;SHT30;55104;47.356;19.448;2023-12-07T19:27:44;0.84;99.74
68274;SHT30;55104;47.356;19.448;2023-12-07T19:30:46;0.85;99.88